Time;durP1;ratioP1;P1;durP2;ratioP2;P2;SDS_P1;SDS_P2;PMS_P1;PMS_P2;Temp;Humidity;BMP_temperature;BMP_pressure;BME280_temperature;BME280_humidity;BME280_pressure;Samples;Min_cycle;Max_cycle;Signal;HPM_P1;HPM_P2
2019/12/26 00:02:02;;;;;;;4.2;2.8;;;;;;;5.37;80.36328;968.8617;;;;
2019/12/26 00:04:27;;;;;;;4.2;2.4;;;;;;;5.18;80.84863;968.8619;;;;
2019/12/26 00:06:52;;;;;;;4;3.1;;;;;;;4.99;81.71484;968.8669;;;;
2019/12/26 00:09:17;;;;;;;4.1;3;;;;;;;4.99;81.68066;968.8242;;;;
2019/12/26 00:11:42;;;;;;;4.6;3.8;;;;;;;4.95;81.96094;968.7924;;;;
2019/12/26 00:14:08;;;;;;;4.7;4.2;;;;;;;4.88;82.34082;968.832;;;;
2019/12/26 00:16:33;;;;;;;4.3;3.9;;;;;;;4.97;82.10352;968.7783;;;;
2019/12/26 00:18:58;;;;;;;5.9;4.2;;;;;;;4.97;81.95313;968.8356;;;;
2019/12/26 00:21:23;;;;;;;5.8;4.4;;;;;;;4.92;81.9082;968.9105;;;;
2019/12/26 00:23:48;;;;;;;5;4.1;;;;;;;4.91;81.92969;968.8942;;;;
2019/12/26 00:26:13;;;;;;;4.8;4.1;;;;;;;4.97;81.61914;968.8845;;;;
2019/12/26 00:29:19;;;;;;;6.3;4.9;;;;;;;4.89;81.87988;968.8679;;;;
2019/12/26 00:31:44;;;;;;;6.5;5;;;;;;;4.84;82.06641;968.8954;;;;
2019/12/26 00:34:09;;;;;;;5.3;4.6;;;;;;;4.87;82.01563;968.97;;;;
2019/12/26 00:36:34;;;;;;;5.7;5.1;;;;;;;4.81;81.99219;968.969;;;;
2019/12/26 00:38:59;;;;;;;6;5.2;;;;;;;4.87;82.00195;968.9358;;;;
2019/12/26 00:41:24;;;;;;;7.6;5.8;;;;;;;4.79;82.03418;968.8537;;;;
2019/12/26 00:43:49;;;;;;;6.3;5.7;;;;;;;4.71;82.49219;968.8483;;;;
2019/12/26 00:46:14;;;;;;;8;6.3;;;;;;;4.66;82.92383;968.8884;;;;
2019/12/26 00:48:39;;;;;;;7.9;5.9;;;;;;;4.64;82.86133;968.8861;;;;
2019/12/26 00:51:04;;;;;;;7.1;6.4;;;;;;;4.68;82.63867;968.8948;;;;
2019/12/26 00:53:30;;;;;;;8;6.9;;;;;;;4.61;82.94824;968.9334;;;;
2019/12/26 00:55:55;;;;;;;7.8;6.6;;;;;;;4.6;82.78516;968.9211;;;;
2019/12/26 00:58:20;;;;;;;9.1;7.1;;;;;;;4.64;82.80371;968.8909;;;;
2019/12/26 01:00:45;;;;;;;8.3;7.4;;;;;;;4.63;82.74414;968.9669;;;;
2019/12/26 01:03:10;;;;;;;10.1;7.6;;;;;;;4.8;82.17676;968.9788;;;;
2019/12/26 01:05:35;;;;;;;8.2;7.2;;;;;;;4.73;82.10352;969.0111;;;;
2019/12/26 01:08:00;;;;;;;9;8.1;;;;;;;4.71;82.40137;969.0522;;;;
2019/12/26 01:10:25;;;;;;;9.5;7.9;;;;;;;4.65;82.16895;969.0394;;;;
2019/12/26 01:12:50;;;;;;;9.1;8.1;;;;;;;4.73;81.81348;969.0876;;;;
2019/12/26 01:15:15;;;;;;;9.9;7.7;;;;;;;4.81;81.69238;969.1711;;;;
2019/12/26 01:17:41;;;;;;;9.8;7.7;;;;;;;4.74;81.79492;969.1873;;;;
2019/12/26 01:20:06;;;;;;;8.6;7.7;;;;;;;4.77;81.52051;969.1912;;;;
2019/12/26 01:22:31;;;;;;;8.6;7.6;;;;;;;4.76;81.53027;969.2098;;;;
2019/12/26 01:24:56;;;;;;;8.6;7.8;;;;;;;4.68;81.85254;969.222;;;;
2019/12/26 01:27:21;;;;;;;9.2;8.2;;;;;;;4.79;81.25977;969.2632;;;;
2019/12/26 01:29:46;;;;;;;10.7;9.3;;;;;;;4.51;81.9248;969.2042;;;;
2019/12/26 01:32:11;;;;;;;10.2;9.2;;;;;;;4.54;81.75488;969.2155;;;;
2019/12/26 01:34:36;;;;;;;10;8.8;;;;;;;4.58;81.7168;969.2045;;;;
2019/12/26 01:37:01;;;;;;;9.2;8.3;;;;;;;4.59;81.38281;969.2542;;;;
2019/12/26 01:39:26;;;;;;;9.8;8.6;;;;;;;4.58;80.80371;969.2609;;;;
2019/12/26 01:41:51;;;;;;;8.9;8;;;;;;;4.61;80.55566;969.3105;;;;
2019/12/26 01:44:16;;;;;;;9.2;7.9;;;;;;;4.56;80.61523;969.3156;;;;
2019/12/26 01:46:41;;;;;;;8.5;7.7;;;;;;;4.55;80.29004;969.3134;;;;
2019/12/26 01:49:07;;;;;;;8.7;7.8;;;;;;;4.48;80.06836;969.3373;;;;
2019/12/26 01:51:32;;;;;;;9.8;7.8;;;;;;;4.47;80.42383;969.3209;;;;
2019/12/26 01:53:57;;;;;;;8.6;7.7;;;;;;;4.3;80.59961;969.2876;;;;
2019/12/26 01:56:22;;;;;;;9.9;8.5;;;;;;;4.34;80.62012;969.2553;;;;
2019/12/26 01:58:47;;;;;;;10;8.1;;;;;;;4.37;80.30176;969.3088;;;;
2019/12/26 02:01:12;;;;;;;9;8.1;;;;;;;4.31;80.21094;969.3287;;;;
2019/12/26 02:03:37;;;;;;;10.8;9.7;;;;;;;4.47;79.60449;969.291;;;;
2019/12/26 02:06:02;;;;;;;12;10.7;;;;;;;4.49;79.36426;969.3107;;;;
2019/12/26 02:08:27;;;;;;;10;8.5;;;;;;;4.3;79.89551;969.2272;;;;
2019/12/26 02:10:52;;;;;;;9;8.1;;;;;;;4.2;79.50781;969.2566;;;;
2019/12/26 02:13:17;;;;;;;10;7.8;;;;;;;4.15;79.80957;969.2625;;;;
2019/12/26 02:15:43;;;;;;;8.5;7.4;;;;;;;4.17;79.36426;969.2817;;;;
2019/12/26 02:18:08;;;;;;;8.8;7.3;;;;;;;4.16;79.33984;969.2545;;;;
2019/12/26 02:20:33;;;;;;;9.2;8.2;;;;;;;4.14;78.97656;969.1909;;;;
2019/12/26 02:22:58;;;;;;;8.7;7.8;;;;;;;4.09;78.95508;969.1931;;;;
2019/12/26 02:25:23;;;;;;;8.4;7.4;;;;;;;4.12;78.65039;969.1542;;;;
2019/12/26 02:27:48;;;;;;;9.7;8.7;;;;;;;4.16;79.07422;969.1314;;;;
2019/12/26 02:30:13;;;;;;;10.1;9;;;;;;;4.18;78.89258;969.1149;;;;
2019/12/26 02:32:38;;;;;;;9.7;8.6;;;;;;;4.12;78.81055;969.0787;;;;
2019/12/26 02:35:04;;;;;;;9.3;8.4;;;;;;;4.02;79.27832;969.0672;;;;
2019/12/26 02:37:29;;;;;;;9.1;8.1;;;;;;;3.92;79.39941;969.0542;;;;
2019/12/26 02:39:54;;;;;;;10.9;9.3;;;;;;;3.89;79.81934;969.0298;;;;
2019/12/26 02:42:19;;;;;;;11.7;8.4;;;;;;;3.87;79.95313;969.0469;;;;
2019/12/26 02:44:55;;;;;;;10.7;9.4;;;;;;;4.02;79.56543;969.0616;;;;
2019/12/26 02:47:09;;;;;;;9.1;8.1;;;;;;;4.03;79.16504;969.1121;;;;
2019/12/26 02:49:34;;;;;;;9.4;8.5;;;;;;;4.08;78.82813;969.0942;;;;
2019/12/26 02:51:59;;;;;;;9.4;8;;;;;;;4.14;78.63184;969.0443;;;;
2019/12/26 02:54:24;;;;;;;8.8;7.9;;;;;;;4.17;78.48633;968.9935;;;;
2019/12/26 02:56:49;;;;;;;12.8;9.6;;;;;;;4.22;78.77148;969.0492;;;;
2019/12/26 02:59:14;;;;;;;10.4;9;;;;;;;4.17;79.27148;969.0353;;;;
2019/12/26 03:01:40;;;;;;;9.8;8.8;;;;;;;4.16;79.7998;969.0437;;;;
2019/12/26 03:04:05;;;;;;;11.1;9.9;;;;;;;4.24;79.44531;969.0106;;;;
2019/12/26 03:06:30;;;;;;;11.3;10.2;;;;;;;4.15;79.74023;969.0288;;;;
2019/12/26 03:08:55;;;;;;;11.2;9.9;;;;;;;4.17;80.27441;968.9766;;;;
2019/12/26 03:11:20;;;;;;;13.6;12.1;;;;;;;4.29;79.7207;968.8907;;;;
2019/12/26 03:13:45;;;;;;;13.8;10.9;;;;;;;4.34;79.66113;968.8997;;;;
2019/12/26 03:16:10;;;;;;;15.2;12.7;;;;;;;4.26;79.86426;968.9224;;;;
2019/12/26 03:18:35;;;;;;;11.7;10.5;;;;;;;4.31;80.11621;968.9222;;;;
2019/12/26 03:21:00;;;;;;;20;14.4;;;;;;;4.34;79.58008;968.9062;;;;
2019/12/26 03:23:25;;;;;;;17.4;13.6;;;;;;;4.38;79.50781;968.8603;;;;
2019/12/26 03:25:50;;;;;;;14.5;12;;;;;;;4.47;79.29102;968.8472;;;;
2019/12/26 03:28:16;;;;;;;14.1;11.8;;;;;;;4.42;79.45605;968.8535;;;;
2019/12/26 03:30:41;;;;;;;15.4;12.6;;;;;;;4.49;79.00684;968.8329;;;;
2019/12/26 03:33:06;;;;;;;14.1;12.6;;;;;;;4.43;79.19238;968.8233;;;;
2019/12/26 03:35:31;;;;;;;14.2;12.2;;;;;;;4.47;78.68066;968.8365;;;;
2019/12/26 03:37:56;;;;;;;12.2;10.7;;;;;;;4.28;79.6377;968.8283;;;;
2019/12/26 03:40:21;;;;;;;11.9;10.7;;;;;;;4.16;80.37891;968.8374;;;;
2019/12/26 03:42:46;;;;;;;12.8;11.2;;;;;;;4.13;80.58203;968.8907;;;;
2019/12/26 03:45:11;;;;;;;10.6;9.5;;;;;;;4.19;80.37012;968.8844;;;;
2019/12/26 03:47:36;;;;;;;11.6;10.4;;;;;;;4.14;80.37402;968.8931;;;;
2019/12/26 03:50:02;;;;;;;11.9;10.7;;;;;;;4.12;80.57617;968.9103;;;;
2019/12/26 03:52:27;;;;;;;11.7;10.3;;;;;;;4.08;80.7793;968.8906;;;;
2019/12/26 03:54:52;;;;;;;12.4;11.1;;;;;;;4.19;80.29102;968.9503;;;;
2019/12/26 03:57:17;;;;;;;12.5;11.2;;;;;;;4.14;80.66406;968.9461;;;;
2019/12/26 03:59:42;;;;;;;12.1;10.5;;;;;;;4.17;80.59961;968.9484;;;;
2019/12/26 04:02:26;;;;;;;13.3;11.6;;;;;;;4.13;80.69531;968.9311;;;;
2019/12/26 04:04:51;;;;;;;11.6;10.4;;;;;;;4.09;80.83691;968.9056;;;;
2019/12/26 04:07:16;;;;;;;14.2;11.2;;;;;;;4.08;80.93945;968.8569;;;;
2019/12/26 04:09:41;;;;;;;12.7;11.4;;;;;;;4.1;80.8291;968.8812;;;;
2019/12/26 04:12:06;;;;;;;13.1;11.4;;;;;;;4.09;80.86035;968.838;;;;
2019/12/26 04:14:31;;;;;;;12.3;11;;;;;;;4.1;80.64258;968.8733;;;;
2019/12/26 04:16:56;;;;;;;12.3;11;;;;;;;4.09;80.57324;968.8275;;;;
2019/12/26 04:19:21;;;;;;;16;12.3;;;;;;;4.07;80.49902;968.8148;;;;
2019/12/26 04:21:47;;;;;;;13.5;12.1;;;;;;;4.13;80.42969;968.8699;;;;
2019/12/26 04:24:12;;;;;;;14;11.6;;;;;;;4.05;80.48438;968.9084;;;;
2019/12/26 04:26:37;;;;;;;13.9;11.3;;;;;;;4.07;80.1416;968.8984;;;;
2019/12/26 04:29:02;;;;;;;13.4;11.9;;;;;;;4.02;80.22559;968.8684;;;;
2019/12/26 04:31:27;;;;;;;13.6;11;;;;;;;4.11;79.82617;968.8786;;;;
2019/12/26 04:33:52;;;;;;;14.8;12.1;;;;;;;4.05;80.17285;968.9327;;;;
2019/12/26 04:36:17;;;;;;;13.7;12;;;;;;;4.1;79.87109;968.9545;;;;
2019/12/26 04:38:42;;;;;;;13.3;11.9;;;;;;;4.09;80.17871;968.9604;;;;
2019/12/26 04:41:07;;;;;;;15.4;12.4;;;;;;;4.14;79.86719;968.9099;;;;
2019/12/26 04:43:32;;;;;;;19.8;15.7;;;;;;;4.23;79.23535;968.9186;;;;
2019/12/26 04:45:57;;;;;;;13.7;12.2;;;;;;;4.24;79.05273;968.902;;;;
2019/12/26 04:48:22;;;;;;;15.6;12.2;;;;;;;4.11;79.47949;968.881;;;;
2019/12/26 04:50:48;;;;;;;12.3;11;;;;;;;3.97;79.55762;968.8602;;;;
2019/12/26 04:53:13;;;;;;;11.8;10.6;;;;;;;3.84;79.83301;968.9053;;;;
2019/12/26 04:55:38;;;;;;;12.6;11.3;;;;;;;3.84;79.80957;968.902;;;;
2019/12/26 04:58:03;;;;;;;12.7;11.4;;;;;;;3.85;79.92676;968.9055;;;;
2019/12/26 05:00:28;;;;;;;20.5;16.6;;;;;;;3.81;79.69922;968.8814;;;;
2019/12/26 05:02:53;;;;;;;15.1;13.5;;;;;;;3.75;80.00098;968.8628;;;;
2019/12/26 05:05:18;;;;;;;14.3;12.8;;;;;;;3.59;80.44434;968.9095;;;;
2019/12/26 05:07:43;;;;;;;13;11.7;;;;;;;3.56;80.42578;968.8908;;;;
2019/12/26 05:10:08;;;;;;;17.4;15.1;;;;;;;3.39;81.39844;968.9519;;;;
2019/12/26 05:12:33;;;;;;;13.9;12.5;;;;;;;3.39;81.44336;968.9883;;;;
2019/12/26 05:14:59;;;;;;;14.8;13.3;;;;;;;3.57;80.42773;968.9606;;;;
2019/12/26 05:17:24;;;;;;;14.2;12.7;;;;;;;3.64;80.30273;969.0261;;;;
2019/12/26 05:19:49;;;;;;;12.7;11.4;;;;;;;3.61;80.21777;968.9127;;;;
2019/12/26 05:22:14;;;;;;;12.1;10.9;;;;;;;3.55;80.40137;968.9102;;;;
2019/12/26 05:24:39;;;;;;;14.1;12.3;;;;;;;3.56;80.21973;968.8859;;;;
2019/12/26 05:27:04;;;;;;;13.3;12;;;;;;;3.52;80.39648;968.8669;;;;
2019/12/26 05:29:29;;;;;;;14.3;12.8;;;;;;;3.56;80.11426;968.8924;;;;
2019/12/26 05:31:54;;;;;;;14.9;13.4;;;;;;;3.38;80.89746;968.8943;;;;
2019/12/26 05:34:19;;;;;;;15.3;13.6;;;;;;;3.58;80.07129;968.9291;;;;
2019/12/26 05:36:44;;;;;;;14.1;12.7;;;;;;;3.51;80.24414;968.9801;;;;
2019/12/26 05:39:09;;;;;;;15.5;13.9;;;;;;;3.4;80.71875;968.9305;;;;
2019/12/26 05:41:34;;;;;;;13.2;11.9;;;;;;;3.3;80.93066;968.9736;;;;
2019/12/26 05:43:59;;;;;;;14.6;13.1;;;;;;;3.57;80.34863;968.9653;;;;
2019/12/26 05:46:24;;;;;;;48.8;18.7;;;;;;;3.72;79.5918;969.0286;;;;
2019/12/26 05:48:50;;;;;;;18.6;14.4;;;;;;;3.63;80.06055;969.0084;;;;
2019/12/26 05:51:15;;;;;;;18.3;15.7;;;;;;;3.78;79.97266;969.075;;;;
2019/12/26 05:53:40;;;;;;;19.3;17.3;;;;;;;3.71;80.23438;969.1021;;;;
2019/12/26 05:56:05;;;;;;;17.3;15.5;;;;;;;3.64;80.77637;969.1057;;;;
2019/12/26 05:58:30;;;;;;;16.2;14.2;;;;;;;3.65;80.86914;969.0829;;;;
2019/12/26 06:00:55;;;;;;;16.6;15;;;;;;;3.62;81.07129;969.0992;;;;
2019/12/26 06:03:20;;;;;;;17.8;15;;;;;;;3.68;81.00098;969.1175;;;;
2019/12/26 06:05:45;;;;;;;16;14.4;;;;;;;3.76;80.45215;969.0781;;;;
2019/12/26 06:08:11;;;;;;;18.2;16.4;;;;;;;3.88;80.11816;969.1197;;;;
2019/12/26 06:10:36;;;;;;;18.8;16.9;;;;;;;3.87;80.26465;969.0975;;;;
2019/12/26 06:13:01;;;;;;;16.8;15.1;;;;;;;3.83;80.67383;969.1429;;;;
2019/12/26 06:15:26;;;;;;;16.8;15.1;;;;;;;3.79;81.25391;969.1078;;;;
2019/12/26 06:17:51;;;;;;;17.7;15.8;;;;;;;3.78;81.05566;969.0478;;;;
2019/12/26 06:20:16;;;;;;;16.2;14.5;;;;;;;3.69;81.17578;969.0377;;;;
2019/12/26 06:22:42;;;;;;;16.6;14.8;;;;;;;3.75;81.32715;969.0109;;;;
2019/12/26 06:25:07;;;;;;;17.9;16;;;;;;;3.72;81.69141;968.9739;;;;
2019/12/26 06:27:32;;;;;;;17.5;15.7;;;;;;;3.72;81.8877;968.9778;;;;
2019/12/26 06:31:17;;;;;;;18.6;16.7;;;;;;;3.81;81.39648;968.9058;;;;
2019/12/26 06:33:42;;;;;;;18.4;16.5;;;;;;;3.87;81.1416;968.9341;;;;
2019/12/26 06:36:08;;;;;;;18.3;16.4;;;;;;;3.83;81.22754;968.8821;;;;
2019/12/26 06:38:33;;;;;;;21.2;18.8;;;;;;;3.94;80.73926;968.9031;;;;
2019/12/26 06:40:58;;;;;;;19.1;17.1;;;;;;;3.96;80.50195;968.9105;;;;
2019/12/26 06:43:23;;;;;;;21.9;19.5;;;;;;;3.89;80.35059;968.9213;;;;
2019/12/26 06:45:48;;;;;;;17.7;15.8;;;;;;;3.74;81.26855;968.9739;;;;
2019/12/26 06:48:13;;;;;;;23;19.5;;;;;;;3.81;81.07422;968.9924;;;;
2019/12/26 06:50:38;;;;;;;19.2;17.2;;;;;;;3.65;81.52637;968.9663;;;;
2019/12/26 06:53:03;;;;;;;19;17;;;;;;;3.61;81.46191;969.0278;;;;
2019/12/26 06:55:29;;;;;;;16.8;15;;;;;;;3.69;81.38477;969.0174;;;;
2019/12/26 06:57:54;;;;;;;19.8;17.5;;;;;;;3.56;81.58008;969.0234;;;;
2019/12/26 07:00:19;;;;;;;17.6;15.8;;;;;;;3.58;81.67578;969.0352;;;;
2019/12/26 07:02:44;;;;;;;19.6;16.4;;;;;;;3.5;81.91309;969.0478;;;;
2019/12/26 07:05:09;;;;;;;18.8;16.9;;;;;;;3.64;81.69922;969.022;;;;
2019/12/26 07:07:34;;;;;;;21;18.7;;;;;;;3.54;82.09473;969.0234;;;;
2019/12/26 07:09:59;;;;;;;18.5;16.5;;;;;;;3.65;81.67676;969.0282;;;;
2019/12/26 07:12:24;;;;;;;17.4;15.5;;;;;;;3.8;81.17578;969.0054;;;;
2019/12/26 07:14:49;;;;;;;18.2;16.4;;;;;;;3.84;81.00977;968.993;;;;
2019/12/26 07:17:15;;;;;;;17.7;15.9;;;;;;;3.94;80.51074;968.9995;;;;
2019/12/26 07:19:40;;;;;;;19.2;16.1;;;;;;;4.08;80.02734;969.0017;;;;
2019/12/26 07:22:05;;;;;;;20.7;18.5;;;;;;;4.03;80.22656;969.0236;;;;
2019/12/26 07:24:30;;;;;;;20.6;18.2;;;;;;;4;80.25684;969.0281;;;;
2019/12/26 07:26:55;;;;;;;22.8;19.9;;;;;;;4.16;79.92676;969.0413;;;;
2019/12/26 07:29:20;;;;;;;19.7;17.3;;;;;;;4.21;79.76172;969.0156;;;;
2019/12/26 07:31:45;;;;;;;21.6;19;;;;;;;4.25;79.51563;969;;;;
2019/12/26 07:34:10;;;;;;;22.3;19.5;;;;;;;4.2;79.81934;968.9852;;;;
2019/12/26 07:36:35;;;;;;;20.8;18.6;;;;;;;4.29;79.53711;969.0235;;;;
2019/12/26 07:39:00;;;;;;;19.5;17.5;;;;;;;4.25;80.00293;968.9612;;;;
2019/12/26 07:41:25;;;;;;;27.4;22.2;;;;;;;4.38;79.39063;968.9131;;;;
2019/12/26 07:43:50;;;;;;;24.6;21.7;;;;;;;4.44;79.35742;968.9899;;;;
2019/12/26 07:46:16;;;;;;;21.7;19.4;;;;;;;4.51;79.19531;968.9844;;;;
2019/12/26 07:48:41;;;;;;;20.5;18.3;;;;;;;4.55;79.64258;969.0251;;;;
2019/12/26 07:51:06;;;;;;;19.5;17.5;;;;;;;4.96;78.28516;969.1211;;;;
2019/12/26 07:53:31;;;;;;;22.2;19.7;;;;;;;5.11;77.02637;969.1144;;;;
2019/12/26 07:55:56;;;;;;;22.1;19.6;;;;;;;4.81;78.14063;969.0842;;;;
2019/12/26 07:58:21;;;;;;;25.4;21.6;;;;;;;5.13;77.25098;969.0784;;;;
2019/12/26 08:00:46;;;;;;;21.1;18.9;;;;;;;5.27;75.99023;969.0953;;;;
2019/12/26 08:03:11;;;;;;;19.4;17.4;;;;;;;5.93;74.47461;969.1078;;;;
2019/12/26 08:05:36;;;;;;;25;21.7;;;;;;;5.89;73.35254;969.1292;;;;
2019/12/26 08:08:01;;;;;;;23.1;19.9;;;;;;;5.93;73.4541;969.1214;;;;
2019/12/26 08:10:27;;;;;;;19.2;17.3;;;;;;;6.53;71.97754;969.1899;;;;
2019/12/26 08:12:52;;;;;;;17.9;16.1;;;;;;;6.8;70.4668;969.1877;;;;
2019/12/26 08:15:17;;;;;;;18.8;16.9;;;;;;;6.64;71.25293;969.2349;;;;
2019/12/26 08:17:42;;;;;;;19.1;17.2;;;;;;;6.19;72.37402;969.2222;;;;
2019/12/26 08:20:07;;;;;;;19.7;17.6;;;;;;;5.76;73.62109;969.2553;;;;
2019/12/26 08:22:32;;;;;;;20.5;18.3;;;;;;;5.46;75.34082;969.3113;;;;
2019/12/26 08:24:57;;;;;;;19.8;17.7;;;;;;;4.99;76.90039;969.2523;;;;
2019/12/26 08:27:22;;;;;;;23.1;20.6;;;;;;;4.46;79.05859;969.309;;;;
2019/12/26 08:29:47;;;;;;;30.1;20.4;;;;;;;4.75;77.83008;969.3087;;;;
2019/12/26 08:32:12;;;;;;;22.5;19;;;;;;;4.97;77.38281;969.2708;;;;
2019/12/26 08:34:37;;;;;;;65.8;21.2;;;;;;;4.81;77.44824;969.329;;;;
2019/12/26 08:37:02;;;;;;;50.2;21.3;;;;;;;4.87;77.55078;969.2751;;;;
2019/12/26 08:39:27;;;;;;;248.7;24.7;;;;;;;4.81;77.34277;969.3083;;;;
2019/12/26 08:41:53;;;;;;;156.9;20.9;;;;;;;4.69;77.37988;969.2589;;;;
2019/12/26 08:44:18;;;;;;;44.7;19.5;;;;;;;4.72;77.54688;969.307;;;;
2019/12/26 08:46:43;;;;;;;60.3;20.2;;;;;;;5.08;76.37402;969.3033;;;;
2019/12/26 08:49:08;;;;;;;160.2;23.4;;;;;;;5.07;75.57422;969.3311;;;;
2019/12/26 08:51:33;;;;;;;41.2;18.8;;;;;;;4.74;76.99512;969.2422;;;;
2019/12/26 08:53:58;;;;;;;46.5;18.4;;;;;;;4.71;77.31543;969.2631;;;;
2019/12/26 08:56:23;;;;;;;34.7;17.7;;;;;;;4.95;76.7207;969.2946;;;;
2019/12/26 08:58:48;;;;;;;189.3;22.2;;;;;;;4.45;78.13281;969.3279;;;;
2019/12/26 09:01:13;;;;;;;82.9;18.3;;;;;;;4.32;78.60645;969.306;;;;
2019/12/26 09:03:38;;;;;;;111.5;16.8;;;;;;;4.53;78.1123;969.2542;;;;
2019/12/26 09:06:03;;;;;;;243.6;19.9;;;;;;;4.69;77.81934;969.2816;;;;
2019/12/26 09:08:28;;;;;;;164.6;19.5;;;;;;;4.53;78.32031;969.3027;;;;
2019/12/26 09:10:53;;;;;;;225.2;20.3;;;;;;;4.54;78.32227;969.2831;;;;
2019/12/26 09:13:18;;;;;;;268;22.1;;;;;;;4.29;78.60059;969.3088;;;;
2019/12/26 09:15:44;;;;;;;298.4;21.9;;;;;;;3.96;79.38281;969.2994;;;;
2019/12/26 09:18:09;;;;;;;184.5;20.1;;;;;;;3.78;80.88281;969.3455;;;;
2019/12/26 09:20:34;;;;;;;197.4;20.6;;;;;;;3.88;80.83203;969.3814;;;;
2019/12/26 09:22:59;;;;;;;194;18.9;;;;;;;4.19;79.95605;969.4077;;;;
2019/12/26 09:25:24;;;;;;;191.4;18.4;;;;;;;4.28;79.60352;969.4306;;;;
2019/12/26 09:27:49;;;;;;;271.2;21;;;;;;;4.43;78.78809;969.4799;;;;
2019/12/26 09:30:14;;;;;;;194.7;19.7;;;;;;;4.39;79.02441;969.4433;;;;
2019/12/26 09:32:39;;;;;;;22.4;16.8;;;;;;;4.45;78.86035;969.4715;;;;
2019/12/26 09:35:04;;;;;;;68.8;18;;;;;;;4.47;79.46582;969.3909;;;;
2019/12/26 09:37:29;;;;;;;104.8;18.3;;;;;;;4.45;79.72754;969.3642;;;;
2019/12/26 09:39:54;;;;;;;64.9;17.9;;;;;;;4.47;80.02051;969.3376;;;;
2019/12/26 09:42:20;;;;;;;36.1;17.6;;;;;;;4.6;79.36328;969.2273;;;;
2019/12/26 09:44:45;;;;;;;42.3;18.8;;;;;;;4.62;79.8623;969.2314;;;;
2019/12/26 09:47:10;;;;;;;24.6;16.6;;;;;;;4.66;79.35059;969.1819;;;;
2019/12/26 09:49:35;;;;;;;19.4;16.9;;;;;;;4.77;79.37305;969.1789;;;;
2019/12/26 09:52:00;;;;;;;21.2;17.8;;;;;;;4.81;78.52246;969.1462;;;;
2019/12/26 09:54:25;;;;;;;17.6;15.8;;;;;;;4.97;77.98438;969.0726;;;;
2019/12/26 09:56:50;;;;;;;18.7;16.7;;;;;;;5.1;78.33301;969.0397;;;;
2019/12/26 09:59:15;;;;;;;27.6;23.5;;;;;;;5.07;78.53809;968.981;;;;
2019/12/26 10:01:40;;;;;;;29.8;25.4;;;;;;;5.14;78.37598;968.9551;;;;
2019/12/26 10:04:05;;;;;;;28.2;23.2;;;;;;;5.23;77.92871;968.995;;;;
2019/12/26 10:06:30;;;;;;;26.8;22.9;;;;;;;5.16;78.39063;969.0223;;;;
2019/12/26 10:08:56;;;;;;;23.4;19.7;;;;;;;5.25;77.79492;968.9642;;;;
2019/12/26 10:11:21;;;;;;;20.4;18.2;;;;;;;5.32;77.14551;968.9581;;;;
2019/12/26 10:13:46;;;;;;;19.4;17.5;;;;;;;5.2;77.85254;968.9172;;;;
2019/12/26 10:16:11;;;;;;;19.7;17.8;;;;;;;5.3;77.61719;968.8376;;;;
2019/12/26 10:18:36;;;;;;;19;17;;;;;;;5.56;76.67871;968.8098;;;;
2019/12/26 10:21:01;;;;;;;21.6;19.4;;;;;;;5.5;76.76074;968.8144;;;;
2019/12/26 10:23:26;;;;;;;21;18.8;;;;;;;5.77;76.99512;968.8886;;;;
2019/12/26 10:25:51;;;;;;;20.3;18.3;;;;;;;5.65;77.3916;968.858;;;;
2019/12/26 10:28:16;;;;;;;19.2;17.2;;;;;;;5.86;76.66504;968.8932;;;;
2019/12/26 10:30:41;;;;;;;20.4;18.3;;;;;;;5.89;76.29883;968.8694;;;;
2019/12/26 10:33:06;;;;;;;22.8;20.4;;;;;;;5.81;77.00293;968.8378;;;;
2019/12/26 10:35:31;;;;;;;21.5;19.2;;;;;;;6.12;75.90039;968.7581;;;;
2019/12/26 10:37:57;;;;;;;21.1;18.9;;;;;;;6.31;75.60742;968.7645;;;;
2019/12/26 10:40:22;;;;;;;21.8;19.6;;;;;;;6.49;75.25586;968.7615;;;;
2019/12/26 10:42:47;;;;;;;22.7;20.3;;;;;;;6.73;74.41602;968.7492;;;;
2019/12/26 10:45:12;;;;;;;23;20.6;;;;;;;6.57;74.49121;968.7095;;;;
2019/12/26 10:47:37;;;;;;;22.6;20.3;;;;;;;6.78;74.0752;968.6769;;;;
2019/12/26 10:50:02;;;;;;;20.6;18.5;;;;;;;7.07;73.17188;968.633;;;;
2019/12/26 10:52:27;;;;;;;23.7;21.2;;;;;;;6.75;74.26855;968.7581;;;;
2019/12/26 10:54:52;;;;;;;23.2;20.8;;;;;;;6.68;74.5;968.7514;;;;
2019/12/26 10:57:17;;;;;;;22.4;20.1;;;;;;;6.72;74.69336;968.7365;;;;
2019/12/26 10:59:42;;;;;;;25.6;22.6;;;;;;;6.91;74.79688;968.7463;;;;
2019/12/26 11:02:08;;;;;;;26;22.6;;;;;;;7.02;74.52441;968.6603;;;;
2019/12/26 11:04:33;;;;;;;24.7;21.7;;;;;;;7.13;73.22949;968.604;;;;
2019/12/26 11:06:58;;;;;;;23.2;20.8;;;;;;;7.2;73.08984;968.6106;;;;
2019/12/26 11:09:23;;;;;;;22.3;19.9;;;;;;;7.19;73.2959;968.573;;;;
2019/12/26 11:11:48;;;;;;;25.8;21.7;;;;;;;7.12;73.16992;968.5475;;;;
2019/12/26 11:14:13;;;;;;;25.5;21.6;;;;;;;7.01;73.52148;968.5047;;;;
2019/12/26 11:16:38;;;;;;;21.8;19.3;;;;;;;7.25;72.72656;968.4185;;;;
2019/12/26 11:19:03;;;;;;;21.4;18.7;;;;;;;7.3;71.60742;968.3811;;;;
2019/12/26 11:21:29;;;;;;;19.7;16;;;;;;;7.42;71.90527;968.3256;;;;
2019/12/26 11:23:54;;;;;;;12.3;11.1;;;;;;;7.29;70.70703;968.314;;;;
2019/12/26 11:26:19;;;;;;;12.4;11.1;;;;;;;7.13;70.69531;968.2252;;;;
2019/12/26 11:28:44;;;;;;;11.3;10.1;;;;;;;7.03;69.48145;968.1847;;;;
2019/12/26 11:31:09;;;;;;;10.4;9.4;;;;;;;7.2;70.41504;968.0847;;;;
2019/12/26 11:33:34;;;;;;;10.6;9.2;;;;;;;7.13;69.94922;968.011;;;;
2019/12/26 11:35:59;;;;;;;8.4;7.6;;;;;;;6.56;71.20508;967.9665;;;;
2019/12/26 11:38:24;;;;;;;8.8;8;;;;;;;6.33;71.66504;967.9735;;;;
2019/12/26 11:40:49;;;;;;;8.1;7.3;;;;;;;6.43;73.01758;968.0372;;;;
2019/12/26 11:43:15;;;;;;;7.4;6.7;;;;;;;6.26;71.58496;968.0168;;;;
2019/12/26 11:45:40;;;;;;;7.7;6.9;;;;;;;6.42;71.98145;968.0049;;;;
2019/12/26 11:48:05;;;;;;;8.2;6.7;;;;;;;6.46;70.52441;967.9257;;;;
2019/12/26 11:50:30;;;;;;;7.2;6.5;;;;;;;6.72;68.82715;967.8801;;;;
2019/12/26 11:52:55;;;;;;;7.7;6.9;;;;;;;6.88;69.31641;967.8074;;;;
2019/12/26 11:55:20;;;;;;;8.2;7.1;;;;;;;6.9;68.53027;967.8041;;;;
2019/12/26 11:57:46;;;;;;;9.8;7.9;;;;;;;7.26;68.96973;967.7662;;;;
2019/12/26 12:00:17;;;;;;;8.4;7.5;;;;;;;7.2;67.47266;967.7561;;;;
2019/12/26 12:02:36;;;;;;;8.7;7.9;;;;;;;7.2;67.90332;967.7635;;;;
2019/12/26 12:05:01;;;;;;;8.6;7.8;;;;;;;7.45;67.7793;967.7592;;;;
2019/12/26 12:07:26;;;;;;;8.5;7.7;;;;;;;7.62;67.27148;967.707;;;;
2019/12/26 12:09:51;;;;;;;8.2;7.2;;;;;;;7.38;65.95508;967.7097;;;;
2019/12/26 12:12:16;;;;;;;8.5;7.7;;;;;;;7.54;65.24609;967.7341;;;;
2019/12/26 12:14:41;;;;;;;8.4;7.6;;;;;;;7.92;64.50977;967.6816;;;;
2019/12/26 12:17:06;;;;;;;8.9;7.5;;;;;;;7.9;64.71777;967.6287;;;;
2019/12/26 12:19:31;;;;;;;8.4;7.5;;;;;;;8.1;64.7373;967.5901;;;;
2019/12/26 12:21:56;;;;;;;8.9;8;;;;;;;8.35;64.42383;967.6122;;;;
2019/12/26 12:24:21;;;;;;;8.5;7.6;;;;;;;8.37;63.60059;967.5626;;;;
2019/12/26 12:26:47;;;;;;;7.8;7.1;;;;;;;8.5;62.98828;967.5146;;;;
2019/12/26 12:31:41;;;;;;;7.8;7;;;;;;;8.57;62.04199;967.524;;;;
2019/12/26 12:34:06;;;;;;;7.8;7;;;;;;;8.62;62.23535;967.5112;;;;
2019/12/26 12:36:31;;;;;;;8.2;7.4;;;;;;;8.6;61.97559;967.4849;;;;
2019/12/26 12:38:56;;;;;;;8;7.2;;;;;;;8.47;62.38867;967.4578;;;;
2019/12/26 12:41:21;;;;;;;7.8;7;;;;;;;8.64;62.70605;967.4697;;;;
2019/12/26 12:43:46;;;;;;;8.1;7.3;;;;;;;8.7;62.11816;967.4991;;;;
2019/12/26 12:46:11;;;;;;;8;7.2;;;;;;;8.32;62.65918;967.5228;;;;
2019/12/26 12:48:36;;;;;;;8.5;7.6;;;;;;;8.41;62.22949;967.5006;;;;
2019/12/26 12:51:01;;;;;;;8.1;7.3;;;;;;;8.75;61.97461;967.5161;;;;
2019/12/26 12:53:26;;;;;;;8.3;7.1;;;;;;;8.68;62.5957;967.4758;;;;
2019/12/26 12:55:51;;;;;;;9.8;8.3;;;;;;;8.34;65.62402;967.4895;;;;
2019/12/26 12:58:17;;;;;;;8.4;7.6;;;;;;;8.29;64.60059;967.4866;;;;
2019/12/26 13:00:42;;;;;;;8;7.2;;;;;;;8.33;64;967.4166;;;;
2019/12/26 13:03:11;;;;;;;8;7.2;;;;;;;8.21;63.63379;967.4504;;;;
2019/12/26 13:05:32;;;;;;;7.9;7.2;;;;;;;8;63.2998;967.4396;;;;
2019/12/26 13:07:57;;;;;;;8.2;7.4;;;;;;;7.96;63.65527;967.3571;;;;
2019/12/26 13:10:22;;;;;;;9.3;8.4;;;;;;;8;64.44141;967.3164;;;;
2019/12/26 13:12:47;;;;;;;8.3;7.5;;;;;;;7.85;64.41895;967.2314;;;;
2019/12/26 13:15:12;;;;;;;8.6;7.7;;;;;;;8.04;64.13184;967.2224;;;;
2019/12/26 13:17:37;;;;;;;8.3;7.4;;;;;;;7.95;64.03711;967.1519;;;;
2019/12/26 13:20:02;;;;;;;8.5;7.7;;;;;;;7.63;65.42188;967.1347;;;;
2019/12/26 13:22:27;;;;;;;8.1;7.3;;;;;;;7.6;66.47559;967.1306;;;;
2019/12/26 13:24:52;;;;;;;8.5;7.7;;;;;;;7.83;65.7207;967.0703;;;;
2019/12/26 13:27:18;;;;;;;8.5;7.7;;;;;;;7.85;65.7832;967.0758;;;;
2019/12/26 13:29:43;;;;;;;8.6;7.8;;;;;;;7.75;65.89453;967.1177;;;;
2019/12/26 13:32:13;;;;;;;8.3;7.5;;;;;;;7.85;65.98145;967.1956;;;;
2019/12/26 13:34:37;;;;;;;8.2;7.4;;;;;;;7.92;64.97559;967.2068;;;;
2019/12/26 13:36:58;;;;;;;8.1;7.3;;;;;;;8.05;64.93848;967.228;;;;
2019/12/26 13:39:23;;;;;;;8.5;7.7;;;;;;;8.19;65.37988;967.1679;;;;
2019/12/26 13:41:48;;;;;;;8.2;7.5;;;;;;;8.1;65.69141;967.1422;;;;
2019/12/26 13:44:13;;;;;;;9;8.1;;;;;;;8.17;65.39844;967.1361;;;;
2019/12/26 13:46:38;;;;;;;8.6;7.7;;;;;;;7.89;66.09082;967.1836;;;;
2019/12/26 13:49:03;;;;;;;9;8.1;;;;;;;7.72;66.4248;967.1872;;;;
2019/12/26 13:51:28;;;;;;;8.6;7.8;;;;;;;7.92;65.84961;967.1746;;;;
2019/12/26 13:53:53;;;;;;;9.1;8.2;;;;;;;7.82;65.91602;967.1436;;;;
2019/12/26 13:56:18;;;;;;;8.5;7.7;;;;;;;7.48;67.48242;967.1247;;;;
2019/12/26 13:58:43;;;;;;;9.1;8.1;;;;;;;7.44;67.89551;967.0359;;;;
2019/12/26 14:01:09;;;;;;;8.6;7.7;;;;;;;7.45;67.45508;967.0153;;;;
2019/12/26 14:03:34;;;;;;;8.8;8;;;;;;;7.46;67.35156;967.1152;;;;
2019/12/26 14:05:59;;;;;;;8.4;7.5;;;;;;;7.35;67.66992;967.1473;;;;
2019/12/26 14:08:24;;;;;;;8.5;7.6;;;;;;;7.43;67.54492;967.1409;;;;
2019/12/26 14:11:01;;;;;;;8.1;7.3;;;;;;;7.32;67.81641;967.1715;;;;
2019/12/26 14:13:14;;;;;;;9;8.1;;;;;;;7.17;67.99023;967.1646;;;;